Bavaria, Kansas
Current Conditions -  °F | °C
As of 4:04 AM on Thursday 29 Jan 2015 (Local Time) from KSLN Reporting Station
Overcast Overcast  
Wind Chill: 34°   Ceiling: 2900
Heat Index: 44°   Visibility: 10mi
Dew Point: 31°   Wind: 31mph
Humidity: 60%   Direction: 340°NNW
Pressure: 30.23"   Gusts: 36mph
Location:  38.8424°N, 97.6193°W
Report Text: KSLN 291004Z AUTO 34027G31KT 10SM OVC029 07/M01 A3023 RMK AO2 PK WND 35032/1003 T00671006
Loading
Personal Weather Stations






























Interactive Weather Map New forecast layout! Learn more

10-Day Weather Forecast

Advertisements
Track Severe Weather on mobile